Flight Track Log - Related Links

Times and Time Zones

All times are in EDT time to prevent confusion due to time zone crossing. See the UAL5914 flight status page for this flight to view local times or setup timezone preferences in your user account.

Time Position Orientation Groundspeed Altitude Reporting Facility
EDT Latitude Longitude Course Direction KTS MPH feet Rate Location/Type
02:31PM 41.9431 -91.5678 54° Northeast 203 234 7,400  Level Chicago Center
02:32PM 41.9842 -91.4953 53° Northeast 242 278 10,000 1,887 Climbing Chicago Center
02:33PM 42.0300 -91.4081 55° Northeast 285 328 11,300 1,548 Climbing Chicago Center
02:34PM 42.0716 -91.3376 62° Northeast  Level FlightAware Approximate
02:34PM 42.0983 -91.2803 54° Northeast 351 404 13,200  Level Chicago Center
02:35PM 42.1158 -91.2377 54° Northeast  Level FlightAware Approximate
02:35PM 42.1586 -91.1697 54° Northeast 368 423 15,200  Level Chicago Center
02:36PM 42.2183 -91.0569 54° Northeast 373 429 16,700 1,403 Climbing Chicago Center
02:37PM 42.2800 -90.9406 54° Northeast 383 441 18,100 1,344 Climbing Chicago Center
02:38PM 42.3431 -90.8203 55° Northeast 393 452 19,500 1,355 Climbing Chicago Center
02:39PM 42.4061 -90.6603 62° Northeast 405 466 20,900 738 Climbing Chicago Center
02:40PM 42.4214 -90.5072 82° East 414 476 21,000 49 Climbing Chicago Center
02:41PM 42.4378 -90.3547 82° East 414 476 21,000  Level Chicago Center
02:42PM 42.4839 -90.2144 66° East 420 483 21,000  Level Chicago Center
02:43PM 42.5336 -90.0800 63° Northeast 411 473 21,000  Level Chicago Center
02:44PM 42.5175 -89.8983 97° East 406 467 21,000  Level Chicago Center
02:45PM 42.5011 -89.7392 98° East 407 468 21,000  Level Chicago Center
02:46PM 42.4867 -89.5869 97° East 410 472 21,000 -823 Level Chicago Center
02:47PM 42.4711 -89.4361 98° East 407 468 19,300 -1,839 Descending Chicago Center
02:48PM 42.4572 -89.2925 97° East 392 451 17,200 -1,839 Descending Chicago Center
02:49PM 42.4428 -89.1556 98° East 374 430 15,500 -1,366 Descending Chicago Center
02:50PM 42.4322 -89.0475 98° East 302 348 14,400 -1,707 Descending Chicago Center
02:52PM 42.4203 -88.9258 98° East 283 326 12,000 -2,081 Descending Chicago Center
02:53PM 42.4086 -88.8250 99° East 275 316 10,100 -1,403 Descending Chicago Center
02:54PM 42.3983 -88.7275 98° East 265 305 9,100 -484 Descending Chicago Center
02:55PM 42.3883 -88.6292 98° East 263 303 9,100  Level Chicago Center
02:56PM 42.3781 -88.5322 98° East 261 300 9,100 -290 Level Chicago Center
02:57PM 42.3361 -88.4608 128° Southeast 267 307 8,500 -532 Descending Chicago Center
02:58PM 42.2606 -88.4647 182° South 261 300 8,000 -293 Descending Chicago Center
02:59PM 42.1711 -88.4722 184° South 273 314 7,900 -488 Descending Chicago Center
03:00PM 42.0992 -88.4747 181° South 262 302 7,000 -871 Descending Chicago Center
03:01PM 42.0331 -88.4556 168° South 245 282 6,100 -919 Descending Chicago Center
03:02PM 41.9900 -88.4072 140° Southeast 213 245 5,100 -532 Descending Chicago Center
03:03PM 41.9672 -88.3356 113° Southeast 212 244 5,000 -97 Descending Chicago Center
03:04PM 41.9672 -88.2611 90° East 205 236 4,900 -290 Descending Chicago Center
03:05PM 41.9681 -88.1897 89° East 173 199 4,400 -629 Descending Chicago Center
03:06PM 41.9678 -88.1328 90° East 159 183 3,600 -725 Descending Chicago Center
03:06PM 41.9667 -88.1000 93° East 155 178 3,300 -621 Descending Chicago TRACON

Login

Don't have an account? Register now (free) for customized features, flight alerts, and more!